createdAt,value
2022-08-01T00:00:18.207Z,100211.59
2022-08-01T00:02:45.201Z,100157.66
2022-08-01T00:05:12.548Z,100106.34
2022-08-01T00:07:39.991Z,100246.50
2022-08-01T00:10:10.308Z,100297.91
2022-08-01T00:12:38.193Z,100232.50
2022-08-01T00:15:07.286Z,100258.66
2022-08-01T00:17:34.795Z,100285.72
2022-08-01T00:20:03.616Z,100257.00
2022-08-01T00:22:32.648Z,100285.78
2022-08-01T00:24:59.807Z,100254.44
2022-08-01T00:27:26.979Z,100126.44
2022-08-01T00:30:13.673Z,100272.88
2022-08-01T00:32:41.385Z,100278.19
2022-08-01T00:35:08.690Z,100272.13
2022-08-01T00:37:35.675Z,100270.41
2022-08-01T00:40:02.714Z,100283.59
2022-08-01T00:42:30.876Z,100178.22
2022-08-01T00:44:57.967Z,100182.66
2022-08-01T00:47:25.029Z,100245.41
2022-08-01T00:49:52.088Z,100251.53
2022-08-01T00:52:19.346Z,100240.22
2022-08-01T00:54:46.591Z,100294.38
2022-08-01T00:57:15.181Z,100279.59
2022-08-01T00:59:42.382Z,100268.25
2022-08-01T01:02:14.972Z,100257.78
2022-08-01T01:04:42.811Z,100279.53
2022-08-01T01:07:18.703Z,100275.13
2022-08-01T01:10:08.608Z,100255.06
2022-08-01T01:12:48.149Z,100187.13
2022-08-01T01:15:38.135Z,100202.00
2022-08-01T01:18:12.607Z,100279.53
2022-08-01T01:20:43.919Z,100235.97
2022-08-01T01:23:29.136Z,100275.16
2022-08-01T01:26:19.168Z,100276.16
2022-08-01T01:29:10.472Z,100287.53
2022-08-01T01:31:44.398Z,100227.41
2022-08-01T01:34:14.920Z,100275.38
2022-08-01T01:36:44.638Z,100271.81
2022-08-01T01:39:15.189Z,100219.69
2022-08-01T01:41:44.458Z,100290.31
2022-08-01T01:44:12.335Z,100257.94
2022-08-01T01:46:41.029Z,100108.16
2022-08-01T01:49:11.479Z,100198.75
2022-08-01T01:51:40.864Z,100250.22
2022-08-01T01:54:09.590Z,100211.94
2022-08-01T01:56:49.574Z,100192.75
2022-08-01T01:59:25.620Z,100206.75
2022-08-01T02:02:06.174Z,100279.88
2022-08-01T02:04:37.325Z,100272.00
2022-08-01T02:07:06.906Z,100252.94
2022-08-01T02:09:35.692Z,100279.94
2022-08-01T02:12:08.422Z,100272.19
2022-08-01T02:14:57.120Z,100198.13
2022-08-01T02:17:25.838Z,100192.03
2022-08-01T02:19:55.076Z,100200.75
2022-08-01T02:22:35.324Z,100262.53
2022-08-01T02:25:15.437Z,100264.31
2022-08-01T02:27:51.182Z,100276.63
2022-08-01T02:30:19.041Z,100260.03
2022-08-01T02:32:48.651Z,100260.91
2022-08-01T02:35:27.621Z,100235.66
2022-08-01T02:37:56.946Z,100256.63
2022-08-01T02:40:25.140Z,100262.72
2022-08-01T02:42:55.721Z,100173.88
2022-08-01T02:45:26.781Z,100210.41
2022-08-01T02:48:00.223Z,100251.44
2022-08-01T02:50:27.864Z,100264.53
2022-08-01T02:52:56.390Z,100254.97
2022-08-01T02:55:24.838Z,100270.63
2022-08-01T02:57:56.833Z,100276.72
2022-08-01T03:00:29.561Z,100177.34
2022-08-01T03:02:58.099Z,100281.97
2022-08-01T03:05:26.459Z,100213.94
2022-08-01T03:07:56.465Z,100270.56
2022-08-01T03:10:31.919Z,100256.59
2022-08-01T03:13:01.530Z,100263.56
2022-08-01T03:15:31.603Z,100250.44
2022-08-01T03:18:01.973Z,100270.50
2022-08-01T03:20:31.007Z,100293.19
2022-08-01T03:23:01.094Z,100247.75
2022-08-01T03:25:30.130Z,100273.88
2022-08-01T03:28:00.656Z,100214.56
2022-08-01T03:30:29.220Z,100250.25
2022-08-01T03:32:56.618Z,100255.47
2022-08-01T03:35:27.261Z,100275.41
2022-08-01T03:40:55.158Z,100263.06
2022-08-01T03:43:34.177Z,100224.75
2022-08-01T03:46:09.152Z,100275.25
2022-08-01T03:48:40.998Z,100235.00
2022-08-01T03:51:09.907Z,100185.31
2022-08-01T03:53:41.172Z,100246.25
2022-08-01T03:56:10.805Z,100190.34
2022-08-01T03:58:40.868Z,100252.16
2022-08-01T04:01:15.948Z,100262.50
2022-08-01T04:03:44.618Z,100096.19
2022-08-01T04:06:11.857Z,100237.97
2022-08-01T04:08:39.987Z,100209.13
2022-08-01T04:11:08.781Z,100214.31
2022-08-01T04:13:37.349Z,100248.28
2022-08-01T04:16:05.870Z,100225.41
2022-08-01T04:18:33.367Z,100163.47
2022-08-01T04:21:00.463Z,100192.09
2022-08-01T04:23:29.710Z,100263.34
2022-08-01T04:25:58.533Z,100177.03
2022-08-01T04:28:25.943Z,100257.72
2022-08-01T04:31:01.861Z,100155.78
2022-08-01T04:33:31.258Z,100225.31
2022-08-01T04:36:04.815Z,100239.91
2022-08-01T04:38:37.886Z,100242.50
2022-08-01T04:41:08.450Z,100266.78
2022-08-01T04:43:38.202Z,100265.00
2022-08-01T04:46:06.958Z,100244.84
2022-08-01T04:48:37.275Z,100255.13
2022-08-01T04:51:04.725Z,100211.50
2022-08-01T04:53:33.483Z,100247.88
2022-08-01T04:56:00.643Z,100264.31
2022-08-01T04:58:27.656Z,100258.97
2022-08-01T05:00:54.610Z,100269.25
2022-08-01T05:03:21.625Z,100116.16
2022-08-01T05:05:48.607Z,100174.25
2022-08-01T05:08:15.592Z,100274.09
2022-08-01T05:10:42.561Z,100229.53
2022-08-01T05:13:10.140Z,100242.47
2022-08-01T05:15:40.095Z,100231.06
2022-08-01T05:18:07.916Z,100208.25
2022-08-01T05:20:35.853Z,100236.81
2022-08-01T05:23:03.206Z,100260.13
2022-08-01T05:25:53.107Z,100244.34
2022-08-01T05:28:19.191Z,100268.53
2022-08-01T05:30:46.705Z,100180.47
2022-08-01T05:33:13.752Z,100162.88
2022-08-01T05:35:48.559Z,100261.69
2022-08-01T05:38:17.066Z,100249.38
2022-08-01T05:40:44.085Z,100263.06
2022-08-01T05:43:11.102Z,100166.34
2022-08-01T05:45:38.119Z,100169.72
2022-08-01T05:48:05.279Z,100179.84
2022-08-01T05:50:33.673Z,100247.38
2022-08-01T05:53:00.638Z,100254.91
2022-08-01T05:55:27.638Z,100186.28
2022-08-01T05:57:54.557Z,100229.38
2022-08-01T06:00:21.731Z,100197.09
2022-08-01T06:02:48.771Z,100237.91
2022-08-01T06:05:16.719Z,100257.66
2022-08-01T06:07:43.779Z,100248.66
2022-08-01T06:10:11.606Z,100231.91
2022-08-01T06:12:38.762Z,100167.41
2022-08-01T06:15:07.171Z,100241.81
2022-08-01T06:17:34.422Z,100204.22
2022-08-01T06:20:01.442Z,100246.53
2022-08-01T06:22:28.883Z,100242.59
2022-08-01T06:24:55.904Z,100242.41
2022-08-01T06:27:22.959Z,100256.72
2022-08-01T06:29:51.339Z,100241.16
2022-08-01T06:32:27.405Z,100249.78
2022-08-01T06:34:56.098Z,100254.44
2022-08-01T06:37:24.244Z,100201.84
2022-08-01T06:39:51.313Z,100200.13
2022-08-01T06:42:18.816Z,100258.69
2022-08-01T06:44:46.459Z,100254.03
2022-08-01T06:47:13.934Z,100191.25
2022-08-01T06:49:40.932Z,100238.25
2022-08-01T06:52:08.375Z,100168.28
2022-08-01T06:54:35.741Z,100254.53
2022-08-01T06:57:06.686Z,100276.53
2022-08-01T06:59:33.934Z,100253.97
2022-08-01T07:02:02.319Z,100216.91
2022-08-01T07:04:29.478Z,100269.66
2022-08-01T07:06:57.150Z,100261.31
2022-08-01T07:09:24.243Z,100142.50
2022-08-01T07:11:53.517Z,100216.25
2022-08-01T07:14:21.758Z,100247.53
2022-08-01T07:16:49.215Z,100245.97
2022-08-01T07:19:16.276Z,100269.78
2022-08-01T07:21:45.227Z,100273.63
2022-08-01T07:24:15.120Z,100190.31
2022-08-01T07:26:47.807Z,100269.50
2022-08-01T07:29:22.876Z,100172.16
2022-08-01T07:31:49.815Z,100251.59
2022-08-01T07:34:16.788Z,100178.06
2022-08-01T07:36:43.891Z,100260.19
2022-08-01T07:39:10.927Z,100257.19
2022-08-01T07:41:52.778Z,100221.25
2022-08-01T07:44:24.892Z,100229.50
2022-08-01T07:46:56.622Z,100245.28
2022-08-01T07:49:23.708Z,100245.22
2022-08-01T07:52:03.263Z,100244.78
2022-08-01T07:54:33.505Z,100193.81
2022-08-01T07:57:02.452Z,100192.72
2022-08-01T07:59:29.522Z,100238.34
2022-08-01T08:01:56.600Z,100222.69
2022-08-01T08:04:23.652Z,100161.78
2022-08-01T08:06:50.748Z,100252.53
2022-08-01T08:09:17.701Z,100227.28
2022-08-01T08:11:47.784Z,100210.84
2022-08-01T08:14:16.287Z,100222.91
2022-08-01T08:16:44.352Z,100118.22
2022-08-01T08:19:12.385Z,100162.97
2022-08-01T08:21:39.568Z,100185.41
2022-08-01T08:24:26.716Z,100189.88
2022-08-01T08:26:59.510Z,100247.03
2022-08-01T08:29:28.180Z,100259.13
2022-08-01T08:31:58.730Z,100249.97
2022-08-01T08:34:27.405Z,100236.66
2022-08-01T08:36:56.524Z,100246.97
2022-08-01T08:39:24.297Z,100141.00
2022-08-01T08:41:51.577Z,100077.78
2022-08-01T08:44:19.673Z,100163.91
2022-08-01T08:46:52.286Z,100158.47
2022-08-01T08:49:25.376Z,100241.44
2022-08-01T08:51:53.983Z,100247.09
2022-08-01T08:54:31.160Z,100241.75
2022-08-01T08:57:01.200Z,100235.84
2022-08-01T08:59:29.441Z,100230.81
2022-08-01T09:01:57.606Z,100163.25
2022-08-01T09:04:26.769Z,100220.78
2022-08-01T09:06:56.952Z,99949.63
2022-08-01T09:09:24.731Z,100221.63
2022-08-01T09:11:56.694Z,100228.44
2022-08-01T09:14:28.422Z,100197.44
2022-08-01T09:17:09.858Z,100233.13
2022-08-01T09:19:48.678Z,100221.50
2022-08-01T09:22:24.800Z,100218.13
2022-08-01T09:25:07.087Z,100217.44
2022-08-01T09:27:35.642Z,100219.41
2022-08-01T09:30:11.831Z,100224.00
2022-08-01T09:32:57.833Z,100212.91
2022-08-01T09:35:29.801Z,100210.13
2022-08-01T09:38:17.005Z,100217.69
2022-08-01T09:40:58.282Z,100227.22
2022-08-01T09:43:28.938Z,100133.31
2022-08-01T09:45:58.005Z,100183.69
2022-08-01T09:48:28.366Z,100184.03
2022-08-01T09:51:04.803Z,100123.28
2022-08-01T09:53:52.622Z,100136.31
2022-08-01T09:56:22.883Z,100208.16
2022-08-01T09:59:10.456Z,100205.16
2022-08-01T10:01:50.800Z,100212.94
2022-08-01T10:04:20.508Z,100193.75
2022-08-01T10:06:57.420Z,100211.19
2022-08-01T10:09:35.996Z,100130.03
2022-08-01T10:12:15.832Z,100142.50
2022-08-01T10:14:46.105Z,100163.69
2022-08-01T10:17:18.391Z,100135.72
2022-08-01T10:19:47.506Z,100191.00
2022-08-01T10:22:18.714Z,100173.63
2022-08-01T10:24:48.291Z,100092.34
2022-08-01T10:27:24.274Z,100199.56
2022-08-01T10:30:19.270Z,100182.00
2022-08-01T10:32:53.202Z,100092.19
2022-08-01T10:35:45.901Z,100181.41
2022-08-01T10:38:13.559Z,100164.94
2022-08-01T10:40:43.065Z,100183.72
2022-08-01T10:43:21.796Z,100186.47
2022-08-01T10:45:51.166Z,100098.81
2022-08-01T10:48:40.078Z,100192.75
2022-08-01T10:51:18.760Z,100171.31
2022-08-01T10:53:54.035Z,100160.84
2022-08-01T10:56:27.051Z,100175.84
2022-08-01T10:59:06.606Z,100169.72
2022-08-01T11:01:44.865Z,100154.16
2022-08-01T11:04:17.876Z,100084.19
2022-08-01T11:07:07.516Z,100185.88
2022-08-01T11:09:45.009Z,100177.69
2022-08-01T11:12:23.259Z,100108.88
2022-08-01T11:14:59.855Z,100172.59
2022-08-01T11:17:42.544Z,100154.25
2022-08-01T11:20:15.596Z,100161.81
2022-08-01T11:23:03.161Z,100166.38
2022-08-01T11:26:05.441Z,100170.56
2022-08-01T11:28:36.560Z,100163.25
2022-08-01T11:31:11.589Z,100081.56
2022-08-01T11:33:46.080Z,100099.56
2022-08-01T11:36:15.484Z,100152.78
2022-08-01T11:38:44.109Z,100162.00
2022-08-01T11:41:38.546Z,100104.50
2022-08-01T11:44:10.260Z,100112.78
2022-08-01T11:47:07.186Z,100154.41
2022-08-01T11:49:48.921Z,100145.94
2022-08-01T11:52:30.646Z,100141.25
2022-08-01T11:55:02.037Z,100135.59
2022-08-01T11:57:35.594Z,99992.53
2022-08-01T12:00:15.489Z,100136.31
2022-08-01T12:02:46.079Z,100130.53
2022-08-01T12:05:16.086Z,100049.25
2022-08-01T12:07:45.934Z,100112.31
2022-08-01T12:10:17.883Z,100104.03
2022-08-01T12:12:50.017Z,100115.53
2022-08-01T12:15:18.229Z,100138.94
2022-08-01T12:17:57.626Z,100134.75
2022-08-01T12:20:31.029Z,100124.38
2022-08-01T12:23:02.449Z,100129.19
2022-08-01T12:25:30.605Z,100120.41
2022-08-01T12:28:04.376Z,100129.97
2022-08-01T12:30:32.430Z,100133.53
2022-08-01T12:32:59.601Z,100072.81
2022-08-01T12:35:29.294Z,100130.53
2022-08-01T12:38:14.825Z,100125.72
2022-08-01T12:40:45.526Z,100126.25
2022-08-01T12:43:21.308Z,100104.44
2022-08-01T12:45:59.479Z,100122.19
2022-08-01T12:48:27.572Z,100113.06
2022-08-01T12:50:58.655Z,100105.22
2022-08-01T12:53:26.926Z,100105.00
2022-08-01T12:55:58.049Z,100114.69
2022-08-01T12:58:35.859Z,100089.31
2022-08-01T13:01:09.259Z,100102.03
2022-08-01T13:03:36.398Z,100105.34
2022-08-01T13:06:16.222Z,100098.84
2022-08-01T13:08:44.403Z,100088.34
2022-08-01T13:11:16.627Z,100040.66
2022-08-01T13:13:49.205Z,100097.44
2022-08-01T13:16:30.442Z,100044.59
2022-08-01T13:19:07.296Z,100011.03
2022-08-01T13:21:53.889Z,100075.84
2022-08-01T13:24:30.076Z,99959.22
2022-08-01T13:27:01.479Z,100044.94
2022-08-01T13:29:39.535Z,100056.50
2022-08-01T13:32:29.123Z,100058.41
2022-08-01T13:35:06.007Z,100080.50
2022-08-01T13:37:33.438Z,99905.94
2022-08-01T13:40:00.454Z,100081.59
2022-08-01T13:42:27.557Z,100008.88
2022-08-01T13:44:54.531Z,100073.63
2022-08-01T13:47:31.103Z,100063.34
2022-08-01T13:50:03.329Z,100086.00
2022-08-01T13:52:31.807Z,100078.38
2022-08-01T13:54:59.499Z,100090.09
2022-08-01T13:57:36.853Z,100094.53
2022-08-01T14:00:09.623Z,100092.53
2022-08-01T14:02:39.888Z,100100.38
2022-08-01T14:05:07.694Z,100095.09
2022-08-01T14:07:34.804Z,100003.47
2022-08-01T14:10:17.798Z,100087.19
2022-08-01T14:12:46.329Z,100076.09
2022-08-01T14:15:15.024Z,100083.25
2022-08-01T14:18:01.966Z,100016.88
2022-08-01T14:20:29.627Z,99963.78
2022-08-01T14:22:56.659Z,100000.78
2022-08-01T14:25:57.709Z,100054.59
2022-08-01T14:28:11.452Z,99973.00
2022-08-01T14:30:38.601Z,99997.53
2022-08-01T14:33:05.668Z,100085.28
2022-08-01T14:36:01.310Z,100079.97
2022-08-01T14:38:31.749Z,100075.50
2022-08-01T14:41:03.786Z,100094.06
2022-08-01T14:43:33.586Z,100080.81
2022-08-01T14:46:02.252Z,100019.47
2022-08-01T14:48:30.358Z,100014.44
2022-08-01T14:50:58.575Z,100070.44
2022-08-01T14:53:25.873Z,100077.69
2022-08-01T14:55:52.939Z,100069.78
2022-08-01T14:58:19.985Z,100080.50
2022-08-01T15:00:47.106Z,100017.16
2022-08-01T15:03:14.369Z,100067.88
2022-08-01T15:05:41.532Z,100076.75
2022-08-01T15:08:08.814Z,100064.03
2022-08-01T15:10:36.043Z,99995.81
2022-08-01T15:13:03.033Z,100054.59
2022-08-01T15:15:30.297Z,100053.78
2022-08-01T15:17:57.909Z,100009.88
2022-08-01T15:20:25.738Z,99986.91
2022-08-01T15:22:53.854Z,99991.28
2022-08-01T15:25:21.587Z,100083.28
2022-08-01T15:27:48.767Z,100060.84
2022-08-01T15:30:15.965Z,100068.84
2022-08-01T15:32:43.117Z,100078.75
2022-08-01T15:35:11.454Z,100071.75
2022-08-01T15:37:42.782Z,100048.63
2022-08-01T15:40:12.545Z,100030.63
2022-08-01T15:42:39.915Z,100026.28
2022-08-01T15:45:10.704Z,100055.75
2022-08-01T15:47:40.536Z,100031.66
2022-08-01T15:50:08.132Z,100067.16
2022-08-01T15:52:35.274Z,100041.34
2022-08-01T15:55:02.517Z,99995.53
2022-08-01T15:57:30.623Z,100058.78
2022-08-01T15:59:57.866Z,100065.88
2022-08-01T16:02:24.912Z,100066.81
2022-08-01T16:04:51.928Z,100066.88
2022-08-01T16:07:18.903Z,100061.69
2022-08-01T16:09:45.872Z,100047.94
2022-08-01T16:12:12.890Z,99997.88
2022-08-01T16:14:39.926Z,99989.28
2022-08-01T16:17:06.985Z,100054.44
2022-08-01T16:19:33.948Z,100012.94
2022-08-01T16:22:00.903Z,100057.25
2022-08-01T16:24:31.207Z,100068.81
2022-08-01T16:26:58.189Z,100048.16
2022-08-01T16:29:33.059Z,99990.47
2022-08-01T16:32:27.413Z,100070.09
2022-08-01T16:34:47.143Z,100055.56
2022-08-01T16:37:15.515Z,100047.78
2022-08-01T16:39:42.671Z,100078.31
2022-08-01T16:42:09.887Z,100073.09
2022-08-01T16:44:38.067Z,100066.38
2022-08-01T16:47:05.902Z,100069.25
2022-08-01T16:49:33.270Z,100074.47
2022-08-01T16:52:00.412Z,100041.69
2022-08-01T16:54:28.084Z,100079.16
2022-08-01T16:56:58.147Z,99985.06
2022-08-01T16:59:41.860Z,100083.94
2022-08-01T17:02:10.807Z,99957.59
2022-08-01T17:04:38.066Z,99938.88
2022-08-01T17:07:05.526Z,100079.28
2022-08-01T17:09:32.940Z,99971.16
2022-08-01T17:11:59.977Z,100082.22
2022-08-01T17:14:28.671Z,100058.19
2022-08-01T17:16:55.667Z,100084.44
2022-08-01T17:19:26.926Z,99990.19
2022-08-01T17:22:00.351Z,100069.97
2022-08-01T17:24:27.497Z,100081.72
2022-08-01T17:26:54.551Z,100088.81
2022-08-01T17:29:21.528Z,99934.88
2022-08-01T17:31:48.887Z,100078.69
2022-08-01T17:34:15.941Z,100072.81
2022-08-01T17:36:43.023Z,100041.00
2022-08-01T17:39:12.414Z,100034.38
2022-08-01T17:41:40.580Z,100092.56
2022-08-01T17:44:08.341Z,100085.78
2022-08-01T17:46:35.608Z,99957.06
2022-08-01T17:49:02.713Z,100107.97
2022-08-01T17:51:30.806Z,100043.97
2022-08-01T17:53:58.219Z,100076.91
2022-08-01T17:56:26.792Z,100107.44
2022-08-01T17:58:53.879Z,100047.69
2022-08-01T18:01:21.670Z,100021.84
2022-08-01T18:03:53.911Z,100056.63
2022-08-01T18:06:23.485Z,100106.91
2022-08-01T18:08:53.125Z,100077.66
2022-08-01T18:11:23.277Z,100099.41
2022-08-01T18:13:51.927Z,100078.66
2022-08-01T18:16:19.264Z,100091.91
2022-08-01T18:18:46.286Z,100105.13
2022-08-01T18:21:13.615Z,100079.97
2022-08-01T18:23:44.220Z,100057.75
2022-08-01T18:26:18.520Z,100115.13
2022-08-01T18:28:46.679Z,100111.84
2022-08-01T18:31:17.037Z,100122.44
2022-08-01T18:33:44.894Z,100051.53
2022-08-01T18:36:14.155Z,100115.75
2022-08-01T18:39:00.519Z,100110.69
2022-08-01T18:41:28.921Z,100087.28
2022-08-01T18:44:05.365Z,100080.44
2022-08-01T18:46:37.238Z,100119.72
2022-08-01T18:49:07.037Z,100024.41
2022-08-01T18:51:34.250Z,99964.78
2022-08-01T18:54:01.407Z,100060.19
2022-08-01T18:56:28.514Z,100098.34
2022-08-01T18:58:55.838Z,100082.78
2022-08-01T19:01:22.979Z,100090.78
2022-08-01T19:03:50.092Z,100071.88
2022-08-01T19:06:17.111Z,100037.19
2022-08-01T19:08:46.060Z,100084.34
2022-08-01T19:11:13.505Z,100052.38
2022-08-01T19:13:40.821Z,100047.41
2022-08-01T19:16:07.909Z,100122.09
2022-08-01T19:18:35.005Z,100118.66
2022-08-01T19:21:07.015Z,100106.78
2022-08-01T19:23:53.690Z,100033.09
2022-08-01T19:26:23.747Z,100048.84
2022-08-01T19:28:56.064Z,100048.88
2022-08-01T19:31:27.724Z,100124.44
2022-08-01T19:33:57.560Z,100058.69
2022-08-01T19:36:24.783Z,100108.22
2022-08-01T19:38:51.851Z,100064.03
2022-08-01T19:41:19.636Z,100099.72
2022-08-01T19:43:48.036Z,100131.84
2022-08-01T19:46:18.192Z,100134.50
2022-08-01T19:48:51.476Z,100086.94
2022-08-01T19:51:22.645Z,100134.66
2022-08-01T19:54:04.910Z,99978.47
2022-08-01T19:56:39.742Z,100090.53
2022-08-01T19:59:08.382Z,100134.91
2022-08-01T20:01:37.255Z,100056.03
2022-08-01T20:04:06.391Z,100137.72
2022-08-01T20:06:35.416Z,100109.94
2022-08-01T20:09:04.027Z,100137.84
2022-08-01T20:11:31.119Z,100133.47
2022-08-01T20:13:58.440Z,100111.75
2022-08-01T20:16:25.620Z,100128.31
2022-08-01T20:18:52.667Z,100061.81
2022-08-01T20:21:20.444Z,100140.66
2022-08-01T20:23:49.965Z,100138.25
2022-08-01T20:26:18.191Z,100092.06
2022-08-01T20:28:47.620Z,100130.41
2022-08-01T20:31:16.588Z,100055.81
2022-08-01T20:33:47.479Z,100061.94
2022-08-01T20:36:24.983Z,100146.25
2022-08-01T20:38:56.881Z,100108.88
2022-08-01T20:41:28.208Z,100053.44
2022-08-01T20:43:57.255Z,100147.25
2022-08-01T20:46:28.834Z,100145.66
2022-08-01T20:48:58.545Z,100155.22
2022-08-01T20:51:27.664Z,100151.78
2022-08-01T20:53:56.355Z,100155.44
2022-08-01T20:56:42.943Z,100142.31
2022-08-01T20:59:39.720Z,100073.72
2022-08-01T21:02:54.547Z,100135.44
2022-08-01T21:05:30.409Z,100047.00
2022-08-01T21:08:11.736Z,100098.31
2022-08-01T21:10:44.305Z,100155.66
2022-08-01T21:13:21.365Z,100122.72
2022-08-01T21:16:22.829Z,100157.44
2022-08-01T21:19:19.646Z,100141.06
2022-08-01T21:22:27.229Z,100163.69
2022-08-01T21:25:00.959Z,100082.22
2022-08-01T21:27:33.203Z,100061.38
2022-08-01T21:30:04.334Z,100155.28
2022-08-01T21:32:34.414Z,100090.19
2022-08-01T21:35:03.765Z,100152.81
2022-08-01T21:37:31.770Z,100153.56
2022-08-01T21:40:02.752Z,100154.59
2022-08-01T21:42:40.288Z,100013.94
2022-08-01T21:45:09.736Z,100064.34
2022-08-01T21:47:37.495Z,100077.47
2022-08-01T21:50:05.091Z,100157.50
2022-08-01T21:52:52.267Z,100148.66
2022-08-01T21:55:35.479Z,100008.19
2022-08-01T21:58:40.390Z,100008.16
2022-08-01T22:01:13.770Z,100095.28
2022-08-01T22:03:47.616Z,100156.13
2022-08-01T22:06:16.356Z,100151.88
2022-08-01T22:08:52.821Z,100131.91
2022-08-01T22:11:25.170Z,100162.44
2022-08-01T22:14:00.165Z,100095.53
2022-08-01T22:16:31.649Z,100136.44
2022-08-01T22:19:04.382Z,100024.44
2022-08-01T22:21:33.149Z,100149.44
2022-08-01T22:24:00.858Z,100149.50
2022-08-01T22:26:29.482Z,100152.13
2022-08-01T22:28:57.166Z,100150.63
2022-08-01T22:31:24.431Z,100068.81
2022-08-01T22:33:52.123Z,100154.09
2022-08-01T22:36:20.153Z,100146.22
2022-08-01T22:38:47.230Z,100148.03
2022-08-01T22:41:21.643Z,100128.06
2022-08-01T22:44:09.852Z,100069.69
2022-08-01T22:46:37.331Z,100143.81
2022-08-01T22:49:46.933Z,100158.41
2022-08-01T22:52:25.664Z,100098.56
2022-08-01T22:54:59.982Z,100120.31
2022-08-01T22:57:35.636Z,100149.91
2022-08-01T23:00:07.557Z,100151.69
2022-08-01T23:02:40.024Z,100095.13
2022-08-01T23:05:08.451Z,100144.72
2022-08-01T23:07:56.560Z,100152.50
2022-08-01T23:10:25.892Z,100100.34
2022-08-01T23:12:54.623Z,100123.78
2022-08-01T23:15:25.204Z,100050.84
2022-08-01T23:17:53.460Z,100045.66
2022-08-01T23:20:21.553Z,100053.50
2022-08-01T23:22:51.305Z,100131.78
2022-08-01T23:25:18.480Z,100096.13
2022-08-01T23:27:54.113Z,100112.69
2022-08-01T23:30:33.350Z,99991.06
2022-08-01T23:33:00.526Z,100135.44
2022-08-01T23:35:29.262Z,100109.28
2022-08-01T23:37:58.627Z,100138.94
2022-08-01T23:40:34.951Z,100111.94
2022-08-01T23:43:03.770Z,100058.09
2022-08-01T23:45:38.266Z,100124.09
2022-08-01T23:48:18.369Z,100124.22
2022-08-01T23:50:45.332Z,100072.97
2022-08-01T23:53:12.763Z,100113.00
2022-08-01T23:55:40.670Z,100095.66
2022-08-01T23:58:11.163Z,100117.50
